Time;durP1;ratioP1;P1;durP2;ratioP2;P2;SDS_P1;SDS_P2;PMS_P1;PMS_P2;Temp;Humidity;BMP_temperature;BMP_pressure;BME280_temperature;BME280_humidity;BME280_pressure;Samples;Min_cycle;Max_cycle;Signal;HPM_P1;HPM_P2
2022/04/09 00:01:58;;;;;;;0.33;0.20;;;;;;;12.92;100.00;100201.13;2618658;54;20141;-64
2022/04/09 00:04:28;;;;;;;0.10;0.10;;;;;;;12.91;100.00;100188.25;2619246;39;20590;-64
2022/04/09 00:06:58;;;;;;;0.00;0.00;;;;;;;12.90;100.00;100189.19;2618761;54;20145;-64
2022/04/09 00:09:28;;;;;;;0.00;0.00;;;;;;;12.65;100.00;100203.25;2619166;54;20141;-64
2022/04/09 00:11:58;;;;;;;0.00;0.00;;;;;;;12.54;100.00;100193.69;2618976;54;20189;-64
2022/04/09 00:14:29;;;;;;;0.10;0.10;;;;;;;12.48;100.00;100188.94;2619180;54;20169;-64
2022/04/09 00:17:01;;;;;;;0.10;0.10;;;;;;;12.31;100.00;100197.19;2619655;39;20556;-64
2022/04/09 00:19:32;;;;;;;0.37;0.37;;;;;;;11.97;100.00;100193.69;2618933;54;20172;-64
2022/04/09 00:22:02;;;;;;;0.20;0.20;;;;;;;12.16;100.00;100190.53;2618684;54;20141;-64
2022/04/09 00:24:32;;;;;;;0.73;0.67;;;;;;;12.17;100.00;100197.41;2619204;54;20142;-64
2022/04/09 00:27:03;;;;;;;0.07;0.07;;;;;;;12.06;100.00;100192.16;2619268;47;20149;-63
2022/04/09 00:29:33;;;;;;;0.20;0.20;;;;;;;12.01;100.00;100194.28;2618769;54;20153;-64
2022/04/09 00:32:07;;;;;;;1.03;0.50;;;;;;;11.98;100.00;100184.94;2619381;54;20141;-64
2022/04/09 00:34:37;;;;;;;0.40;0.40;;;;;;;12.05;100.00;100193.09;2619676;54;20148;-64
2022/04/09 00:37:08;;;;;;;1.87;1.27;;;;;;;12.80;100.00;100185.66;2619219;47;20698;-64
2022/04/09 00:39:38;;;;;;;1.13;0.87;;;;;;;13.05;100.00;100174.97;2619473;54;20153;-64
2022/04/09 00:42:16;;;;;;;0.53;0.50;;;;;;;13.03;100.00;100169.06;2619207;54;20146;-64
2022/04/09 00:44:46;;;;;;;1.47;0.70;;;;;;;13.10;100.00;100178.06;2619216;51;20152;-63
2022/04/09 00:47:19;;;;;;;0.93;0.93;;;;;;;12.99;100.00;100170.25;2619941;39;20571;-63
2022/04/09 00:49:49;;;;;;;0.47;0.40;;;;;;;12.96;100.00;100180.88;2619066;39;20609;-65
2022/04/09 00:52:24;;;;;;;2.67;0.30;;;;;;;12.84;100.00;100184.47;2618764;54;20145;-64
2022/04/09 00:54:57;;;;;;;0.37;0.37;;;;;;;12.73;100.00;100185.28;2619815;47;20160;-63
2022/04/09 00:57:53;;;;;;;0.50;0.40;;;;;;;12.51;100.00;100180.91;2619748;54;20658;-64
2022/04/09 01:00:23;;;;;;;0.20;0.20;;;;;;;12.37;100.00;100172.47;2619925;54;20137;-64
2022/04/09 01:02:56;;;;;;;0.80;0.80;;;;;;;12.48;100.00;100178.53;2619931;54;20152;-63
2022/04/09 01:05:26;;;;;;;0.30;0.30;;;;;;;12.50;100.00;100178.41;2619935;54;20153;-64
2022/04/09 01:07:57;;;;;;;0.30;0.20;;;;;;;12.71;100.00;100178.56;2619762;54;20146;-65
2022/04/09 01:10:28;;;;;;;0.00;0.00;;;;;;;13.17;100.00;100175.81;2619471;54;20149;-64
2022/04/09 01:12:58;;;;;;;0.17;0.03;;;;;;;13.04;100.00;100170.69;2619004;39;20564;-64
2022/04/09 01:15:28;;;;;;;0.00;0.00;;;;;;;13.27;100.00;100182.78;2619430;39;20583;-64
2022/04/09 01:18:02;;;;;;;1.20;1.20;;;;;;;13.36;100.00;100176.81;2618746;54;20154;-64
2022/04/09 01:20:32;;;;;;;0.93;0.47;;;;;;;13.44;100.00;100177.03;2619275;54;20169;-64
2022/04/09 01:23:05;;;;;;;0.13;0.13;;;;;;;13.33;100.00;100171.88;2619601;54;20140;-64
2022/04/09 01:25:37;;;;;;;0.00;0.00;;;;;;;13.25;100.00;100176.84;2619258;54;20154;-64
2022/04/09 01:28:08;;;;;;;0.00;0.00;;;;;;;13.03;100.00;100161.25;2619143;54;20688;-65
2022/04/09 01:30:38;;;;;;;0.10;0.10;;;;;;;13.02;100.00;100160.41;2618595;54;20145;-64
2022/04/09 01:33:08;;;;;;;0.37;0.37;;;;;;;13.17;100.00;100165.38;2619712;47;20142;-64
2022/04/09 01:35:38;;;;;;;0.03;0.03;;;;;;;13.04;100.00;100163.72;2619336;54;20145;-65
2022/04/09 01:38:11;;;;;;;0.30;0.30;;;;;;;12.93;100.00;100168.13;2619201;54;20152;-64
2022/04/09 01:40:41;;;;;;;0.00;0.00;;;;;;;13.20;100.00;100168.56;2619177;39;20542;-65
2022/04/09 01:43:12;;;;;;;0.10;0.10;;;;;;;13.41;100.00;100172.06;2618985;47;20164;-65
2022/04/09 01:45:42;;;;;;;0.10;0.10;;;;;;;13.52;100.00;100174.63;2620098;39;20556;-64
2022/04/09 01:48:12;;;;;;;0.20;0.20;;;;;;;13.57;100.00;100172.50;2619589;54;20138;-64
2022/04/09 01:50:42;;;;;;;0.10;0.10;;;;;;;13.62;100.00;100164.31;2619471;47;20145;-63
2022/04/09 01:53:15;;;;;;;0.00;0.00;;;;;;;13.49;100.00;100161.88;2618879;54;20144;-65
2022/04/09 01:55:46;;;;;;;0.20;0.20;;;;;;;13.52;100.00;100160.81;2618782;54;20146;-65
2022/04/09 01:58:16;;;;;;;1.40;0.40;;;;;;;13.43;100.00;100162.38;2618822;54;20165;-65
2022/04/09 02:00:46;;;;;;;3.23;0.67;;;;;;;13.13;100.00;100159.59;2618483;54;20242;-65
2022/04/09 02:03:17;;;;;;;0.20;0.20;;;;;;;13.21;100.00;100153.78;2618483;54;20138;-65
2022/04/09 02:05:47;;;;;;;0.00;0.00;;;;;;;13.47;100.00;100163.78;2618365;54;20250;-65
2022/04/09 02:08:20;;;;;;;0.00;0.00;;;;;;;13.90;100.00;100168.09;2618514;54;20133;-65
2022/04/09 02:10:50;;;;;;;0.00;0.00;;;;;;;14.05;100.00;100159.81;2617927;54;20228;-64
2022/04/09 02:13:20;;;;;;;0.30;0.30;;;;;;;14.31;100.00;100162.88;2618185;54;20646;-64
2022/04/09 02:15:51;;;;;;;0.00;0.00;;;;;;;14.39;100.00;100155.25;2618490;54;20142;-64
2022/04/09 02:18:21;;;;;;;0.00;0.00;;;;;;;14.49;100.00;100166.56;2618777;51;20137;-65
2022/04/09 02:20:52;;;;;;;0.83;0.83;;;;;;;14.27;100.00;100153.66;2618349;54;20141;-64
2022/04/09 02:23:25;;;;;;;0.00;0.00;;;;;;;14.13;100.00;100150.53;2618759;54;20144;-64
2022/04/09 02:25:55;;;;;;;0.00;0.00;;;;;;;13.75;100.00;100154.53;2618629;54;20149;-65
2022/04/09 02:28:26;;;;;;;0.10;0.10;;;;;;;13.52;100.00;100142.56;2619083;54;20153;-64
2022/04/09 02:30:57;;;;;;;0.73;0.30;;;;;;;13.49;100.00;100151.44;2618861;54;20141;-65
2022/04/09 02:33:27;;;;;;;0.40;0.30;;;;;;;12.91;100.00;100152.63;2619102;54;20198;-65
2022/04/09 02:35:57;;;;;;;0.83;0.20;;;;;;;12.82;100.00;100158.53;2619034;54;20145;-65
2022/04/09 02:38:30;;;;;;;0.10;0.10;;;;;;;12.69;100.00;100152.63;2618709;54;20134;-65
2022/04/09 02:41:00;;;;;;;0.60;0.60;;;;;;;12.55;100.00;100151.13;2618230;54;20142;-64
2022/04/09 02:43:31;;;;;;;0.70;0.70;;;;;;;12.51;100.00;100147.09;2618890;54;20658;-65
2022/04/09 02:46:01;;;;;;;0.10;0.10;;;;;;;12.48;100.00;100144.69;2619933;39;20538;-64
2022/04/09 02:48:31;;;;;;;0.00;0.00;;;;;;;12.35;100.00;100150.97;2619054;54;20146;-65
2022/04/09 02:51:01;;;;;;;0.00;0.00;;;;;;;12.49;100.00;100150.72;2619497;39;20574;-64
2022/04/09 02:53:34;;;;;;;0.13;0.13;;;;;;;12.44;100.00;100138.06;2618907;54;20148;-64
2022/04/09 02:56:04;;;;;;;0.07;0.07;;;;;;;12.51;100.00;100139.28;2619070;54;20142;-64
2022/04/09 02:58:34;;;;;;;0.30;0.30;;;;;;;12.81;100.00;100146.47;2619171;54;20145;-64
2022/04/09 03:01:05;;;;;;;3.63;0.13;;;;;;;12.82;100.00;100139.50;2618541;54;20140;-64
2022/04/09 03:03:35;;;;;;;0.00;0.00;;;;;;;12.85;100.00;100128.84;2618897;54;20134;-64
2022/04/09 03:06:06;;;;;;;0.00;0.00;;;;;;;12.71;100.00;100136.91;2618647;54;20654;-64
2022/04/09 03:08:38;;;;;;;0.00;0.00;;;;;;;12.88;100.00;100131.22;2619450;39;20510;-64
2022/04/09 03:11:10;;;;;;;0.00;0.00;;;;;;;13.01;100.00;100130.09;2618408;54;20197;-64
2022/04/09 03:13:40;;;;;;;0.00;0.00;;;;;;;12.81;100.00;100124.81;2618865;54;20134;-64
2022/04/09 03:16:10;;;;;;;0.10;0.10;;;;;;;12.80;100.00;100126.59;2618564;54;20650;-65
2022/04/09 03:18:40;;;;;;;0.10;0.10;;;;;;;12.54;100.00;100122.59;2618878;47;20164;-65
2022/04/09 03:21:11;;;;;;;1.23;1.00;;;;;;;12.35;100.00;100114.56;2618607;54;20145;-65
2022/04/09 03:23:44;;;;;;;1.37;0.30;;;;;;;12.04;100.00;100113.44;2618432;54;20129;-64
2022/04/09 03:26:14;;;;;;;0.10;0.10;;;;;;;12.02;100.00;100113.56;2619068;54;20164;-65
2022/04/09 03:28:44;;;;;;;0.17;0.17;;;;;;;12.04;100.00;100119.47;2618993;54;20666;-64
2022/04/09 03:31:14;;;;;;;0.10;0.10;;;;;;;11.96;100.00;100118.38;2619016;54;20157;-64
2022/04/09 03:33:45;;;;;;;0.57;0.57;;;;;;;12.16;100.00;100117.72;2618919;54;20673;-65
2022/04/09 03:36:16;;;;;;;0.00;0.00;;;;;;;12.42;100.00;100120.94;2618653;54;20134;-64
2022/04/09 03:38:49;;;;;;;0.00;0.00;;;;;;;12.73;100.00;100124.59;2618826;54;20134;-65
2022/04/09 03:41:19;;;;;;;0.07;0.07;;;;;;;12.89;100.00;100123.25;2618660;54;20152;-64
2022/04/09 03:43:50;;;;;;;0.00;0.00;;;;;;;12.79;100.00;100121.53;2618933;54;20141;-65
2022/04/09 03:46:26;;;;;;;0.00;0.00;;;;;;;13.23;100.00;100118.84;2618083;54;20144;-64
2022/04/09 03:48:57;;;;;;;0.00;0.00;;;;;;;13.47;100.00;100109.06;2618797;54;20512;-64
2022/04/09 03:51:27;;;;;;;0.17;0.17;;;;;;;13.13;100.00;100104.91;2618489;54;20508;-66
2022/04/09 03:54:00;;;;;;;0.13;0.13;;;;;;;12.94;100.00;100100.31;2619165;54;20149;-64
2022/04/09 03:56:30;;;;;;;0.00;0.00;;;;;;;12.96;100.00;100105.38;2618899;54;20157;-63
2022/04/09 03:59:00;;;;;;;0.13;0.13;;;;;;;12.59;100.00;100104.84;2618647;54;20149;-65
2022/04/09 04:01:30;;;;;;;0.07;0.07;;;;;;;12.42;100.00;100113.13;2618123;54;20142;-65
2022/04/09 04:04:01;;;;;;;0.20;0.20;;;;;;;12.38;100.00;100116.91;2618765;54;20145;-65
2022/04/09 04:06:31;;;;;;;1.40;0.73;;;;;;;12.51;100.00;100122.84;2618519;54;20148;-64
2022/04/09 04:09:04;;;;;;;0.13;0.13;;;;;;;12.84;100.00;100111.59;2618602;54;20142;-64
2022/04/09 04:11:34;;;;;;;0.00;0.00;;;;;;;12.76;100.00;100117.34;2618227;54;20193;-64
2022/04/09 04:14:04;;;;;;;1.43;1.33;;;;;;;12.81;100.00;100114.41;2618298;54;20133;-64
2022/04/09 04:16:34;;;;;;;0.73;0.40;;;;;;;12.55;100.00;100114.69;2618771;39;20593;-65
2022/04/09 04:19:04;;;;;;;0.50;0.50;;;;;;;12.51;100.00;100113.25;2618437;54;20173;-65
2022/04/09 04:21:35;;;;;;;0.30;0.30;;;;;;;12.68;100.00;100108.53;2619076;54;20160;-64
2022/04/09 04:24:08;;;;;;;0.10;0.10;;;;;;;12.71;100.00;100108.28;2619224;39;20551;-64
2022/04/09 04:26:38;;;;;;;0.20;0.20;;;;;;;12.65;100.00;100114.78;2618785;54;20133;-65
2022/04/09 04:29:09;;;;;;;1.63;0.63;;;;;;;12.69;100.00;100113.59;2618276;54;20156;-65
2022/04/09 04:31:39;;;;;;;0.87;0.73;;;;;;;12.44;100.00;100114.66;2618304;54;20144;-65
2022/04/09 04:34:09;;;;;;;0.50;0.50;;;;;;;12.47;100.00;100116.22;2618748;54;20248;-64
2022/04/09 04:36:39;;;;;;;0.13;0.13;;;;;;;12.48;100.00;100117.84;2619443;54;20142;-65
2022/04/09 04:39:12;;;;;;;0.77;0.20;;;;;;;12.71;100.00;100119.53;2619508;54;20160;-66
2022/04/09 04:41:42;;;;;;;0.10;0.10;;;;;;;12.61;100.00;100114.19;2619055;54;20141;-65
2022/04/09 04:44:13;;;;;;;0.00;0.00;;;;;;;13.11;100.00;100112.03;2618557;54;20165;-65
2022/04/09 04:46:43;;;;;;;0.10;0.10;;;;;;;13.02;100.00;100117.91;2619366;54;20149;-65
2022/04/09 04:49:13;;;;;;;2.00;0.60;;;;;;;13.00;100.00;100112.00;2619644;54;20149;-65
2022/04/09 04:51:43;;;;;;;0.13;0.13;;;;;;;13.06;100.00;100111.53;2619062;54;20141;-66
2022/04/09 04:54:16;;;;;;;0.50;0.43;;;;;;;13.45;100.00;100110.94;2618903;54;20142;-65
2022/04/09 04:56:46;;;;;;;0.77;0.77;;;;;;;13.34;100.00;100123.19;2619638;39;20537;-65
2022/04/09 04:59:18;;;;;;;0.70;0.70;;;;;;;13.11;100.00;100123.28;2618879;54;20148;-65
2022/04/09 05:01:48;;;;;;;0.03;0.03;;;;;;;13.44;100.00;100117.09;2619501;54;20150;-65
2022/04/09 05:04:19;;;;;;;0.47;0.47;;;;;;;13.02;100.00;100108.34;2618767;54;20156;-66
2022/04/09 05:06:50;;;;;;;0.40;0.40;;;;;;;13.00;100.00;100112.00;2619701;54;20134;-65
2022/04/09 05:09:23;;;;;;;0.30;0.30;;;;;;;12.92;100.00;100110.00;2619256;54;20666;-65
2022/04/09 05:11:53;;;;;;;1.93;0.87;;;;;;;12.75;100.00;100105.31;2619512;51;20197;-65
2022/04/09 05:14:23;;;;;;;6.53;0.90;;;;;;;12.81;100.00;100117.84;2619970;39;20646;-65
2022/04/09 05:16:54;;;;;;;0.40;0.40;;;;;;;12.80;100.00;100110.97;2619382;54;20154;-65
2022/04/09 05:19:24;;;;;;;0.93;0.93;;;;;;;12.94;100.00;100102.06;2619408;54;20165;-65
2022/04/09 05:21:54;;;;;;;0.23;0.23;;;;;;;13.01;100.00;100103.25;2619364;54;20140;-65
2022/04/09 05:24:27;;;;;;;0.37;0.37;;;;;;;12.96;100.00;100113.19;2619459;54;20133;-65
2022/04/09 05:26:57;;;;;;;0.20;0.20;;;;;;;13.05;100.00;100105.47;2619308;54;20689;-65
2022/04/09 05:29:27;;;;;;;1.93;1.83;;;;;;;13.12;100.00;100108.44;2619256;54;20134;-65
2022/04/09 05:31:59;;;;;;;0.80;0.80;;;;;;;13.50;100.00;100116.63;2619420;54;20141;-65
2022/04/09 05:34:29;;;;;;;4.63;1.00;;;;;;;13.50;100.00;100114.00;2619604;47;20148;-65
2022/04/09 05:37:00;;;;;;;1.27;0.70;;;;;;;13.40;100.00;100105.28;2619722;54;20148;-65
2022/04/09 05:39:33;;;;;;;1.27;0.77;;;;;;;13.74;100.00;100113.78;2620178;54;20708;-65
2022/04/09 05:42:03;;;;;;;1.30;0.73;;;;;;;13.87;100.00;100121.41;2620236;54;20150;-65
2022/04/09 05:44:33;;;;;;;2.23;2.03;;;;;;;13.91;100.00;100118.44;2621113;54;20142;-65
2022/04/09 05:47:03;;;;;;;1.60;0.63;;;;;;;13.81;100.00;100121.91;2620605;54;20153;-65
2022/04/09 05:49:34;;;;;;;1.20;0.70;;;;;;;13.79;100.00;100114.22;2619872;47;20262;-65
2022/04/09 05:52:04;;;;;;;5.10;1.80;;;;;;;13.89;100.00;100109.88;2620866;54;20169;-65
2022/04/09 05:54:37;;;;;;;8.63;2.23;;;;;;;13.94;100.00;100115.56;2619265;47;20140;-64
2022/04/09 05:57:07;;;;;;;2.20;1.93;;;;;;;13.98;100.00;100119.56;2619464;54;20156;-66
2022/04/09 05:59:38;;;;;;;18.17;4.85;;;;;;;14.08;100.00;100106.59;2619253;54;20156;-66
2022/04/09 06:02:08;;;;;;;1.47;1.20;;;;;;;14.14;100.00;100102.63;2619367;54;20674;-65
2022/04/09 06:04:39;;;;;;;2.27;1.93;;;;;;;14.37;100.00;100104.97;2619115;54;20181;-65
2022/04/09 06:07:11;;;;;;;0.63;0.63;;;;;;;14.45;100.00;100107.75;2619296;54;20142;-65
2022/04/09 06:09:44;;;;;;;3.47;1.80;;;;;;;14.59;100.00;100110.97;2619865;39;20561;-64
2022/04/09 06:12:15;;;;;;;4.83;1.70;;;;;;;14.66;100.00;100112.91;2619772;54;20201;-65
2022/04/09 06:14:45;;;;;;;2.67;1.47;;;;;;;14.85;100.00;100117.34;2619045;54;20141;-67
2022/04/09 06:17:15;;;;;;;2.17;1.98;;;;;;;14.97;100.00;100105.84;2619207;54;20149;-67
2022/04/09 06:19:47;;;;;;;1.90;1.63;;;;;;;15.30;100.00;100099.41;2617852;54;20142;-66
2022/04/09 06:22:18;;;;;;;0.98;0.95;;;;;;;15.64;100.00;100105.94;2616987;54;20148;-66
2022/04/09 06:24:51;;;;;;;1.40;1.25;;;;;;;15.60;100.00;100101.13;2617576;54;20169;-66
2022/04/09 06:27:21;;;;;;;1.80;1.50;;;;;;;15.58;100.00;100103.84;2618090;54;20150;-66
2022/04/09 06:29:51;;;;;;;1.20;1.20;;;;;;;15.73;100.00;100094.63;2617917;47;20164;-65
2022/04/09 06:32:22;;;;;;;0.70;0.60;;;;;;;16.08;100.00;100096.63;2617978;51;20137;-66
2022/04/09 06:34:52;;;;;;;1.33;1.23;;;;;;;16.22;100.00;100098.78;2618538;39;20618;-66
2022/04/09 06:37:22;;;;;;;1.77;1.40;;;;;;;16.26;100.00;100100.13;2617640;54;20678;-66
2022/04/09 06:39:55;;;;;;;2.03;1.92;;;;;;;16.24;100.00;100099.47;2618111;54;20142;-67
2022/04/09 06:42:27;;;;;;;1.13;0.88;;;;;;;16.42;100.00;100099.53;2617712;54;20140;-66
2022/04/09 06:44:58;;;;;;;1.85;1.35;;;;;;;16.70;100.00;100110.88;2617752;54;20953;-65
2022/04/09 06:47:28;;;;;;;3.38;2.13;;;;;;;16.78;100.00;100109.19;2618818;50;20149;-67
2022/04/09 06:49:58;;;;;;;1.35;1.25;;;;;;;16.53;100.00;100098.53;2617841;54;20134;-64
2022/04/09 06:52:28;;;;;;;1.30;1.20;;;;;;;16.62;100.00;100095.88;2617935;54;20137;-65
2022/04/09 06:55:01;;;;;;;2.97;2.63;;;;;;;16.59;100.00;100101.44;2617667;39;20230;-65
2022/04/09 06:57:32;;;;;;;1.92;1.67;;;;;;;16.33;100.00;100103.81;2617743;54;20142;-65
2022/04/09 07:00:03;;;;;;;4.80;1.67;;;;;;;16.33;100.00;100103.81;2618605;54;20140;-65
2022/04/09 07:02:33;;;;;;;2.45;0.73;;;;;;;16.38;100.00;100096.38;2618961;39;20527;-66
2022/04/09 07:05:03;;;;;;;1.25;1.13;;;;;;;16.57;100.00;100097.31;2619005;39;20532;-66
2022/04/09 07:07:34;;;;;;;1.45;0.93;;;;;;;16.45;100.00;100099.22;2619004;39;20565;-65
2022/04/09 07:10:10;;;;;;;0.40;0.40;;;;;;;16.46;100.00;100110.53;2618397;54;20165;-65
2022/04/09 07:12:41;;;;;;;0.77;0.75;;;;;;;16.56;100.00;100101.69;2619130;46;20243;-66
2022/04/09 07:15:12;;;;;;;0.70;0.70;;;;;;;16.74;100.00;100109.63;2618736;47;20236;-65
2022/04/09 07:17:44;;;;;;;4.22;1.33;;;;;;;16.61;100.00;100104.72;2619284;54;20150;-65
2022/04/09 07:20:15;;;;;;;1.20;0.82;;;;;;;16.61;100.00;100103.91;2618536;54;20133;-65
2022/04/09 07:22:45;;;;;;;3.38;1.17;;;;;;;16.74;100.00;100093.91;2618390;54;20264;-66
2022/04/09 07:25:18;;;;;;;2.20;1.23;;;;;;;16.85;100.00;100101.53;2617717;54;20609;-66
2022/04/09 07:27:49;;;;;;;9.02;1.17;;;;;;;17.07;100.00;100093.28;2617466;54;20169;-66
2022/04/09 07:30:21;;;;;;;1.13;0.40;;;;;;;17.15;99.49;100092.53;2616778;54;20145;-66
2022/04/09 07:32:52;;;;;;;0.73;0.73;;;;;;;17.42;93.79;100091.63;2617159;47;20684;-65
2022/04/09 07:35:22;;;;;;;1.27;1.25;;;;;;;17.28;95.49;100078.09;2617106;54;20153;-67
2022/04/09 07:37:58;;;;;;;0.90;0.90;;;;;;;17.38;96.07;100085.03;2617486;54;20193;-65
2022/04/09 07:40:31;;;;;;;1.95;1.75;;;;;;;17.54;95.57;100077.31;2618287;54;20152;-68
2022/04/09 07:43:02;;;;;;;1.95;0.68;;;;;;;17.65;90.08;100071.88;2618431;54;20156;-67
2022/04/09 07:45:33;;;;;;;2.15;1.17;;;;;;;17.85;88.08;100075.97;2618641;54;20217;-67
2022/04/09 07:48:05;;;;;;;0.60;0.52;;;;;;;18.05;86.77;100082.66;2618375;54;20153;-66
2022/04/09 07:50:36;;;;;;;0.65;0.65;;;;;;;17.95;84.27;100081.09;2618333;54;20175;-66
2022/04/09 07:53:08;;;;;;;0.45;0.45;;;;;;;18.01;86.71;100083.09;2618815;54;20140;-66
2022/04/09 07:55:41;;;;;;;0.70;0.60;;;;;;;18.07;87.35;100077.22;2618018;54;20142;-66
2022/04/09 07:58:14;;;;;;;0.77;0.77;;;;;;;18.23;85.88;100054.50;2618344;54;20133;-66
2022/04/09 08:00:45;;;;;;;3.67;1.00;;;;;;;18.11;85.12;100074.13;2618163;54;20233;-66
2022/04/09 08:03:16;;;;;;;1.02;1.02;;;;;;;18.30;83.86;100067.00;2618368;54;20142;-65
2022/04/09 08:05:47;;;;;;;2.10;1.52;;;;;;;18.59;82.01;100062.22;2618726;54;20177;-65
2022/04/09 08:08:17;;;;;;;4.82;2.10;;;;;;;18.59;80.54;100056.97;2619964;39;20541;-66
2022/04/09 08:10:50;;;;;;;1.95;0.93;;;;;;;18.91;80.76;100058.88;2618816;54;20141;-66
2022/04/09 08:13:20;;;;;;;0.57;0.55;;;;;;;18.89;80.59;100055.59;2618679;54;20157;-65
2022/04/09 08:15:50;;;;;;;0.52;0.52;;;;;;;18.84;79.83;100053.44;2618585;54;20249;-65
2022/04/09 08:18:21;;;;;;;1.05;0.93;;;;;;;18.87;81.47;100055.75;2618306;54;20148;-65
2022/04/09 08:21:07;;;;;;;0.68;0.55;;;;;;;19.02;80.32;100046.25;2618266;54;20527;-66
2022/04/09 08:23:37;;;;;;;0.60;0.28;;;;;;;19.30;78.33;100040.69;2619138;54;20148;-65
2022/04/09 08:26:10;;;;;;;1.30;0.80;;;;;;;19.31;77.55;100034.44;2618656;54;20142;-65
2022/04/09 08:28:40;;;;;;;0.98;0.63;;;;;;;19.10;80.10;100032.28;2618409;54;20141;-67
2022/04/09 08:31:10;;;;;;;2.40;1.25;;;;;;;19.21;79.86;100039.88;2618831;54;20685;-64
2022/04/09 08:33:42;;;;;;;2.40;1.13;;;;;;;19.46;76.15;100040.69;2618466;54;20149;-65
2022/04/09 08:36:13;;;;;;;1.50;0.68;;;;;;;19.69;75.81;100035.59;2617697;47;20142;-64
2022/04/09 08:38:44;;;;;;;0.50;0.43;;;;;;;19.96;75.48;100040.47;2619048;47;20157;-65
2022/04/09 08:41:19;;;;;;;1.20;1.00;;;;;;;19.78;75.29;100035.41;2617921;54;20137;-64
2022/04/09 08:43:49;;;;;;;5.18;1.50;;;;;;;19.97;75.27;100040.31;2618193;39;20536;-65
2022/04/09 08:46:19;;;;;;;0.70;0.70;;;;;;;19.92;75.37;100034.72;2617833;54;20145;-64
2022/04/09 08:48:51;;;;;;;1.80;0.82;;;;;;;20.16;77.61;100033.00;2617989;54;20164;-64
2022/04/09 08:51:22;;;;;;;0.22;0.15;;;;;;;20.59;74.02;100031.69;2618558;54;20693;-64
2022/04/09 08:54:02;;;;;;;0.40;0.40;;;;;;;20.81;71.73;100034.38;2618304;54;20257;-65
2022/04/09 08:56:41;;;;;;;1.30;1.20;;;;;;;20.66;67.26;100035.31;2618244;54;20138;-64
2022/04/09 08:59:11;;;;;;;1.40;1.13;;;;;;;20.74;63.91;100024.72;2617862;54;20145;-65
2022/04/09 09:01:42;;;;;;;0.88;0.80;;;;;;;21.02;61.40;100031.91;2617767;47;20536;-65
2022/04/09 09:04:13;;;;;;;1.20;1.00;;;;;;;21.27;60.03;100021.22;2618190;54;20670;-65
2022/04/09 09:06:45;;;;;;;1.42;1.33;;;;;;;21.45;58.77;100017.28;2618042;54;20142;-64
2022/04/09 09:09:29;;;;;;;0.75;0.10;;;;;;;21.63;58.41;100003.72;2617854;54;20142;-65
2022/04/09 09:12:06;;;;;;;0.52;0.52;;;;;;;22.06;56.15;100003.97;2617549;47;20743;-66
2022/04/09 09:14:37;;;;;;;1.75;1.45;;;;;;;21.86;55.69;100001.03;2617965;54;20674;-65
2022/04/09 09:17:07;;;;;;;5.60;2.00;;;;;;;22.07;54.42;99987.94;2617686;46;20161;-65
2022/04/09 09:19:46;;;;;;;6.30;1.77;;;;;;;22.22;53.02;100001.97;2617538;47;20137;-64
2022/04/09 09:22:16;;;;;;;1.10;1.00;;;;;;;22.12;53.08;99998.78;2618500;54;20149;-65
2022/04/09 09:25:03;;;;;;;0.82;0.82;;;;;;;21.93;52.70;99997.53;2618911;54;20717;-64
2022/04/09 09:27:40;;;;;;;2.58;0.88;;;;;;;21.75;54.15;99990.91;2618967;54;20133;-66
2022/04/09 09:30:13;;;;;;;2.67;1.77;;;;;;;22.15;52.68;99974.63;2618752;54;20697;-66
2022/04/09 09:32:44;;;;;;;2.65;2.10;;;;;;;22.45;51.01;99974.56;2618884;54;20160;-66
2022/04/09 09:35:14;;;;;;;1.17;0.98;;;;;;;22.02;50.60;99978.94;2618968;54;20238;-65
2022/04/09 09:37:45;;;;;;;1.08;1.08;;;;;;;22.00;50.99;99970.34;2618852;54;20140;-65
2022/04/09 09:40:33;;;;;;;2.50;0.73;;;;;;;22.27;49.86;99973.13;2618942;54;20145;-66
2022/04/09 09:43:18;;;;;;;4.15;3.75;;;;;;;22.37;50.08;99972.84;2618582;54;20134;-65
2022/04/09 09:45:50;;;;;;;2.90;2.70;;;;;;;22.61;49.89;99969.88;2619298;54;20153;-66
2022/04/09 09:48:25;;;;;;;0.15;0.15;;;;;;;23.15;49.82;99969.41;2618575;54;20141;-66
2022/04/09 09:50:57;;;;;;;1.02;1.00;;;;;;;23.50;48.39;99965.00;2618740;54;20145;-64
2022/04/09 09:53:32;;;;;;;0.57;0.57;;;;;;;23.39;48.13;99963.66;2618528;54;20492;-65
2022/04/09 09:56:02;;;;;;;0.05;0.05;;;;;;;23.29;49.67;99965.84;2618415;54;20141;-65
2022/04/09 09:58:35;;;;;;;0.77;0.77;;;;;;;23.49;48.73;99966.84;2618622;47;20232;-65
2022/04/09 10:01:18;;;;;;;2.00;1.23;;;;;;;23.17;48.62;99964.72;2618272;47;20248;-65
2022/04/09 10:03:49;;;;;;;0.20;0.20;;;;;;;23.50;48.30;99949.94;2618495;54;20142;-65
2022/04/09 10:06:19;;;;;;;0.20;0.20;;;;;;;23.68;47.55;99952.91;2618566;54;20164;-65
2022/04/09 10:08:50;;;;;;;0.10;0.10;;;;;;;23.96;46.67;99949.38;2617835;54;20144;-66
2022/04/09 10:11:20;;;;;;;0.10;0.10;;;;;;;24.08;46.41;99945.13;2619219;54;20277;-65
2022/04/09 10:13:57;;;;;;;1.35;0.80;;;;;;;23.99;46.88;99947.13;2618941;54;20148;-65
2022/04/09 10:16:30;;;;;;;0.73;0.73;;;;;;;23.76;47.98;99942.16;2619812;39;20552;-66
2022/04/09 10:19:02;;;;;;;0.60;0.32;;;;;;;23.84;47.20;99935.88;2618447;54;20404;-66
2022/04/09 10:21:35;;;;;;;0.15;0.15;;;;;;;23.87;47.24;99939.97;2617780;54;20141;-66
2022/04/09 10:24:08;;;;;;;0.30;0.30;;;;;;;24.13;47.20;99934.78;2618041;54;20662;-66
2022/04/09 10:26:38;;;;;;;0.52;0.52;;;;;;;24.15;47.59;99938.09;2617951;54;20146;-65
2022/04/09 10:29:12;;;;;;;0.57;0.57;;;;;;;24.28;47.99;99932.00;2618280;54;20237;-66
2022/04/09 10:31:43;;;;;;;0.63;0.63;;;;;;;23.97;45.51;99935.94;2618603;54;20149;-65
2022/04/09 10:34:16;;;;;;;2.95;0.90;;;;;;;23.56;44.39;99927.16;2618955;39;20728;-64
2022/04/09 10:37:03;;;;;;;1.27;1.17;;;;;;;23.75;42.73;99914.00;2617832;54;20193;-65
2022/04/09 10:39:48;;;;;;;0.75;0.47;;;;;;;23.66;42.44;99922.34;2617290;54;20141;-65
2022/04/09 10:42:54;;;;;;;1.25;1.13;;;;;;;23.17;43.62;99932.97;2617385;54;20145;-65
2022/04/09 10:45:27;;;;;;;3.50;2.63;;;;;;;23.33;43.72;99922.09;2618073;39;20378;-66
2022/04/09 10:48:13;;;;;;;4.93;3.97;;;;;;;23.64;44.28;99919.88;2618618;54;20688;-66
2022/04/09 10:50:56;;;;;;;3.63;0.85;;;;;;;23.76;44.41;99904.22;2618559;47;20245;-65
2022/04/09 10:53:28;;;;;;;0.50;0.50;;;;;;;23.89;43.85;99896.34;2617868;54;20150;-65
2022/04/09 10:56:20;;;;;;;0.32;0.20;;;;;;;23.79;44.53;99902.00;2618204;54;20134;-64
2022/04/09 10:59:09;;;;;;;0.63;0.63;;;;;;;23.99;45.23;99893.34;2617733;54;20149;-65
2022/04/09 11:01:55;;;;;;;0.47;0.20;;;;;;;23.90;45.27;99889.22;2618871;54;20142;-65
2022/04/09 11:04:42;;;;;;;1.33;1.05;;;;;;;24.22;45.52;99884.06;2619178;31;20682;-65
2022/04/09 11:07:16;;;;;;;0.17;0.13;;;;;;;24.11;45.62;99879.28;2618024;54;20141;-64
2022/04/09 11:09:54;;;;;;;0.10;0.10;;;;;;;24.61;44.69;99882.50;2617628;47;20153;-66
2022/04/09 11:12:26;;;;;;;0.08;0.08;;;;;;;24.35;44.28;99882.47;2617894;54;20201;-65
2022/04/09 11:14:59;;;;;;;0.43;0.43;;;;;;;24.61;43.06;99879.84;2617871;54;20142;-65
2022/04/09 11:17:34;;;;;;;0.20;0.20;;;;;;;24.90;43.00;99881.31;2618215;54;20709;-65
2022/04/09 11:20:07;;;;;;;0.35;0.32;;;;;;;24.61;41.99;99866.56;2617858;54;20140;-66
2022/04/09 11:22:39;;;;;;;0.00;0.00;;;;;;;24.64;42.33;99877.59;2617719;54;20137;-65
2022/04/09 11:25:11;;;;;;;0.38;0.30;;;;;;;24.37;41.57;99864.50;2617782;52;20150;-65
2022/04/09 11:27:41;;;;;;;0.73;0.73;;;;;;;24.17;41.11;99851.22;2617401;47;20142;-65
2022/04/09 11:30:12;;;;;;;0.28;0.28;;;;;;;24.47;41.74;99870.25;2617660;47;20265;-66
2022/04/09 11:32:45;;;;;;;0.43;0.43;;;;;;;24.55;41.21;99854.97;2618009;54;20654;-64
2022/04/09 11:35:24;;;;;;;0.50;0.50;;;;;;;24.74;40.73;99852.50;2618107;54;20145;-64
2022/04/09 11:37:55;;;;;;;0.52;0.52;;;;;;;24.62;41.76;99852.31;2617409;47;20142;-65
2022/04/09 11:40:25;;;;;;;0.90;0.90;;;;;;;24.72;42.44;99839.44;2617373;54;20149;-65
2022/04/09 11:42:57;;;;;;;0.60;0.35;;;;;;;25.22;41.37;99835.31;2617417;54;20148;-63
2022/04/09 11:45:31;;;;;;;0.20;0.13;;;;;;;25.16;41.27;99830.84;2617266;54;20148;-65